Time;durP1;ratioP1;P1;durP2;ratioP2;P2;SDS_P1;SDS_P2;PMS_P1;PMS_P2;Temp;Humidity;BMP_temperature;BMP_pressure;BME280_temperature;BME280_humidity;BME280_pressure;Samples;Min_cycle;Max_cycle;Signal;HPM_P1;HPM_P2
2023/10/28 00:01:12;;;;;;;4.10;3.80;;;8.40;99.90;;;;;;5033182;28;20793;-64
2023/10/28 00:03:38;;;;;;;4.40;4.00;;;8.40;99.90;;;;;;5035176;28;20402;-64
2023/10/28 00:06:04;;;;;;;4.90;4.40;;;8.40;99.90;;;;;;5051221;28;20546;-64
2023/10/28 00:08:30;;;;;;;6.63;4.83;;;8.50;99.90;;;;;;5055044;28;20476;-64
2023/10/28 00:10:56;;;;;;;9.73;6.23;;;8.50;99.90;;;;;;5055067;28;20375;-64
2023/10/28 00:13:22;;;;;;;6.50;4.90;;;8.50;99.90;;;;;;5055074;28;20185;-64
2023/10/28 00:15:48;;;;;;;6.60;4.10;;;8.40;99.90;;;;;;5054159;28;20470;-63
2023/10/28 00:18:14;;;;;;;5.03;4.50;;;8.40;99.90;;;;;;5054890;28;20864;-71
2023/10/28 00:20:41;;;;;;;5.40;4.50;;;8.40;99.90;;;;;;5054088;28;20200;-64
2023/10/28 00:23:08;;;;;;;5.00;4.50;;;8.40;99.90;;;;;;5052761;28;20172;-64
2023/10/28 00:25:34;;;;;;;5.93;3.83;;;8.50;99.90;;;;;;5054093;28;20889;-64
2023/10/28 00:28:00;;;;;;;4.97;4.17;;;8.50;99.90;;;;;;5054593;28;20927;-64
2023/10/28 00:30:26;;;;;;;6.80;5.03;;;8.60;99.90;;;;;;5053159;28;20888;-64
2023/10/28 00:32:53;;;;;;;4.80;4.40;;;8.40;99.90;;;;;;5053750;28;20425;-64
2023/10/28 00:35:21;;;;;;;4.23;3.83;;;8.40;99.90;;;;;;5053452;28;20733;-65
2023/10/28 00:37:47;;;;;;;4.93;4.53;;;8.40;99.90;;;;;;5054178;28;20432;-64
2023/10/28 00:40:13;;;;;;;4.50;4.10;;;8.50;99.90;;;;;;5054239;28;20422;-64
2023/10/28 00:42:39;;;;;;;10.77;4.60;;;8.50;99.90;;;;;;5043590;28;20401;-64
2023/10/28 00:45:08;;;;;;;5.67;5.07;;;8.40;99.90;;;;;;5033785;28;20174;-63
2023/10/28 00:47:34;;;;;;;5.10;4.43;;;8.40;99.90;;;;;;5034493;28;20175;-64
2023/10/28 00:50:02;;;;;;;5.57;5.07;;;8.40;99.90;;;;;;5034276;28;20373;-64
2023/10/28 00:52:28;;;;;;;4.67;4.37;;;8.40;99.90;;;;;;5034492;28;20412;-63
2023/10/28 00:54:56;;;;;;;4.90;4.40;;;8.40;99.90;;;;;;5032989;28;20913;-66
2023/10/28 00:57:22;;;;;;;4.53;4.13;;;8.40;99.90;;;;;;5033964;28;20222;-64
2023/10/28 00:59:48;;;;;;;4.43;4.03;;;8.40;99.90;;;;;;5033965;28;20998;-64
2023/10/28 01:02:14;;;;;;;5.60;5.10;;;8.50;99.90;;;;;;5032789;28;20461;-63
2023/10/28 01:04:40;;;;;;;4.30;3.90;;;8.40;99.90;;;;;;5033511;28;20913;-64
2023/10/28 01:07:07;;;;;;;5.30;4.23;;;8.40;99.90;;;;;;5033867;28;20205;-64
2023/10/28 01:09:47;;;;;;;4.73;3.70;;;8.40;99.90;;;;;;5034022;28;20398;-64
2023/10/28 01:12:16;;;;;;;5.33;4.77;;;8.30;99.90;;;;;;5033827;28;20406;-64
2023/10/28 01:14:42;;;;;;;4.67;4.27;;;8.40;99.90;;;;;;5032582;28;20460;-63
2023/10/28 01:17:09;;;;;;;4.53;4.17;;;8.50;99.90;;;;;;5033609;28;20810;-65
2023/10/28 01:19:35;;;;;;;4.50;4.20;;;8.50;99.90;;;;;;5034068;28;20591;-64
2023/10/28 01:22:01;;;;;;;5.33;4.83;;;8.40;99.90;;;;;;5033722;28;20515;-64
2023/10/28 01:24:32;;;;;;;4.70;4.30;;;8.50;99.90;;;;;;5032527;28;20412;-65
2023/10/28 01:26:59;;;;;;;5.17;4.30;;;8.40;99.90;;;;;;5032435;28;20472;-64
2023/10/28 01:29:25;;;;;;;7.40;4.83;;;8.50;99.90;;;;;;5033704;28;20921;-63
2023/10/28 01:31:51;;;;;;;5.23;4.83;;;8.50;99.90;;;;;;5033301;28;20415;-64
2023/10/28 01:34:17;;;;;;;5.13;4.63;;;8.50;99.90;;;;;;5032834;28;20407;-64
2023/10/28 01:36:45;;;;;;;5.23;4.73;;;8.50;99.90;;;;;;5032634;28;20531;-64
2023/10/28 01:39:15;;;;;;;5.87;4.53;;;8.50;99.90;;;;;;5033705;28;20634;-64
2023/10/28 01:41:41;;;;;;;5.17;4.20;;;8.50;99.90;;;;;;5033612;28;20533;-64
2023/10/28 01:44:07;;;;;;;4.90;4.50;;;8.50;99.90;;;;;;5033479;28;20896;-64
2023/10/28 01:46:33;;;;;;;4.70;4.30;;;8.50;99.90;;;;;;5032533;28;20422;-64
2023/10/28 01:48:58;;;;;;;6.80;4.47;;;8.40;99.90;;;;;;5033655;28;20695;-65
2023/10/28 01:51:24;;;;;;;9.50;5.03;;;8.50;99.90;;;;;;5032655;28;20381;-64
2023/10/28 01:53:50;;;;;;;4.97;4.53;;;8.50;99.90;;;;;;5033357;28;20546;-64
2023/10/28 01:56:16;;;;;;;6.20;4.70;;;8.50;99.90;;;;;;5032289;28;20195;-65
2023/10/28 01:58:42;;;;;;;5.00;4.57;;;8.60;99.90;;;;;;5033381;28;20409;-64
2023/10/28 02:01:07;;;;;;;4.93;4.10;;;8.60;99.90;;;;;;5033355;28;20226;-65
2023/10/28 02:03:33;;;;;;;5.47;4.13;;;8.60;99.90;;;;;;5033411;28;20171;-64
2023/10/28 02:05:59;;;;;;;4.97;4.47;;;8.60;99.90;;;;;;5032115;28;20190;-65
2023/10/28 02:08:25;;;;;;;6.40;4.37;;;8.60;99.90;;;;;;5040472;28;20405;-64
2023/10/28 02:10:50;;;;;;;6.83;4.17;;;8.70;99.90;;;;;;5053136;28;20171;-64
2023/10/28 02:13:16;;;;;;;6.77;4.60;;;8.70;99.90;;;;;;5053322;28;20176;-64
2023/10/28 02:15:44;;;;;;;5.07;4.57;;;8.70;99.90;;;;;;5052103;28;20266;-65
2023/10/28 02:18:10;;;;;;;5.77;4.20;;;8.70;99.90;;;;;;5053184;28;20186;-64
2023/10/28 02:20:36;;;;;;;5.60;5.10;;;8.70;99.90;;;;;;5053009;28;20420;-67
2023/10/28 02:23:02;;;;;;;4.20;3.90;;;8.70;99.90;;;;;;5052843;28;20247;-64
2023/10/28 02:25:28;;;;;;;10.50;4.70;;;8.80;99.90;;;;;;5052044;28;20368;-64
2023/10/28 02:27:54;;;;;;;6.17;4.90;;;8.70;99.90;;;;;;5052394;28;20738;-64
2023/10/28 02:30:20;;;;;;;6.00;4.70;;;8.70;99.90;;;;;;5053177;28;20174;-65
2023/10/28 02:32:45;;;;;;;9.17;4.67;;;8.70;99.90;;;;;;5052801;28;20415;-64
2023/10/28 02:35:11;;;;;;;5.87;4.10;;;8.80;99.90;;;;;;5052069;28;20186;-64
2023/10/28 02:37:39;;;;;;;5.37;4.97;;;8.80;99.90;;;;;;5035474;28;20206;-64
2023/10/28 02:40:08;;;;;;;4.53;4.07;;;8.70;99.90;;;;;;5033072;28;20536;-64
2023/10/28 02:42:34;;;;;;;4.10;3.77;;;8.70;99.90;;;;;;5032273;28;20405;-65
2023/10/28 02:45:00;;;;;;;6.83;4.20;;;8.70;99.90;;;;;;5032218;28;20381;-67
2023/10/28 02:47:25;;;;;;;4.97;4.50;;;8.70;99.90;;;;;;5036001;28;20403;-64
2023/10/28 02:49:51;;;;;;;5.47;4.17;;;8.80;99.90;;;;;;5036720;28;20171;-64
2023/10/28 02:52:17;;;;;;;4.50;4.20;;;8.70;99.90;;;;;;5036617;28;20169;-63
2023/10/28 02:54:43;;;;;;;5.07;4.67;;;8.70;99.90;;;;;;5035634;28;20176;-65
2023/10/28 02:57:09;;;;;;;6.03;5.43;;;8.80;99.90;;;;;;5036514;28;20678;-63
2023/10/28 02:59:35;;;;;;;10.30;4.97;;;8.80;99.90;;;;;;5036238;28;20377;-63
2023/10/28 03:02:01;;;;;;;5.30;4.67;;;8.80;99.90;;;;;;5036116;28;20453;-63
2023/10/28 03:04:26;;;;;;;5.30;4.60;;;8.80;99.90;;;;;;5035790;28;20164;-64
2023/10/28 03:06:52;;;;;;;5.60;5.10;;;8.70;99.90;;;;;;5035705;28;20723;-67
2023/10/28 03:09:18;;;;;;;8.90;4.63;;;8.70;99.90;;;;;;5036574;28;20620;-63
2023/10/28 03:11:45;;;;;;;4.73;4.40;;;8.70;99.90;;;;;;5036185;28;20172;-63
2023/10/28 03:14:12;;;;;;;5.90;4.90;;;8.70;99.90;;;;;;5036169;28;20567;-63
2023/10/28 03:16:39;;;;;;;5.47;4.80;;;8.80;99.90;;;;;;5035510;28;20432;-64
2023/10/28 03:19:04;;;;;;;5.17;4.67;;;8.70;99.90;;;;;;5035598;28;20179;-65
2023/10/28 03:21:30;;;;;;;5.83;4.87;;;8.70;99.90;;;;;;5034393;28;20457;-64
2023/10/28 03:23:56;;;;;;;6.23;4.37;;;8.70;99.90;;;;;;5034769;28;20193;-64
2023/10/28 03:26:22;;;;;;;4.90;4.50;;;8.70;99.90;;;;;;5035357;28;20432;-63
2023/10/28 03:28:49;;;;;;;6.63;5.93;;;8.80;99.90;;;;;;5035972;28;20568;-64
2023/10/28 03:31:15;;;;;;;6.30;5.30;;;8.70;99.90;;;;;;5035669;28;20218;-64
2023/10/28 03:33:41;;;;;;;5.10;4.70;;;8.70;99.90;;;;;;5035983;28;20803;-64
2023/10/28 03:36:10;;;;;;;5.40;4.90;;;8.70;99.90;;;;;;5035125;28;20503;-64
2023/10/28 03:38:36;;;;;;;11.80;5.27;;;8.70;99.90;;;;;;5035337;28;20433;-64
2023/10/28 03:41:06;;;;;;;5.37;4.97;;;8.80;99.90;;;;;;5035237;28;20439;-64
2023/10/28 03:43:32;;;;;;;6.27;5.10;;;8.80;99.90;;;;;;5035695;28;20183;-64
2023/10/28 03:45:58;;;;;;;6.90;5.27;;;8.80;99.90;;;;;;5035033;28;20439;-64
2023/10/28 03:48:24;;;;;;;8.60;5.60;;;8.80;99.90;;;;;;5035538;28;20197;-64
2023/10/28 03:50:57;;;;;;;5.43;4.57;;;8.70;99.90;;;;;;5035535;28;20171;-64
2023/10/28 03:53:23;;;;;;;8.60;4.90;;;8.70;99.90;;;;;;5035685;28;20476;-64
2023/10/28 03:55:48;;;;;;;5.03;4.53;;;8.70;99.90;;;;;;5034659;28;20492;-64
2023/10/28 03:58:14;;;;;;;6.03;4.77;;;8.80;99.90;;;;;;5034300;28;20178;-64
2023/10/28 04:00:40;;;;;;;4.97;4.47;;;8.80;99.90;;;;;;5035235;28;20262;-64
2023/10/28 04:03:06;;;;;;;5.30;4.80;;;8.90;99.90;;;;;;5035492;28;20179;-65
2023/10/28 04:05:31;;;;;;;5.40;4.90;;;8.80;99.90;;;;;;5034508;28;20434;-64
2023/10/28 04:07:57;;;;;;;5.57;5.07;;;8.80;99.90;;;;;;5035213;28;20222;-64
2023/10/28 04:10:23;;;;;;;5.43;4.90;;;8.80;99.90;;;;;;5046444;28;20255;-64
2023/10/28 04:12:49;;;;;;;5.33;4.90;;;8.80;99.90;;;;;;5054862;28;20221;-64
2023/10/28 04:15:16;;;;;;;5.30;4.90;;;8.80;99.90;;;;;;5054061;28;20179;-64
2023/10/28 04:17:42;;;;;;;4.40;4.00;;;8.80;99.90;;;;;;5054313;28;20284;-65
2023/10/28 04:20:10;;;;;;;7.63;6.83;;;8.80;99.90;;;;;;5054850;28;20463;-64
2023/10/28 04:22:38;;;;;;;5.23;4.83;;;8.70;99.90;;;;;;5054986;28;20428;-64
2023/10/28 04:25:05;;;;;;;5.50;4.53;;;8.80;99.90;;;;;;5054068;28;20418;-64
2023/10/28 04:27:32;;;;;;;5.60;5.10;;;8.80;99.90;;;;;;5054919;28;20895;-66
2023/10/28 04:29:58;;;;;;;5.93;4.83;;;8.80;99.90;;;;;;5054631;28;20844;-64
2023/10/28 04:32:24;;;;;;;5.73;5.13;;;8.80;99.90;;;;;;5054365;28;20382;-64
2023/10/28 04:34:51;;;;;;;5.20;4.17;;;8.80;99.90;;;;;;5045147;28;20394;-64
2023/10/28 04:37:17;;;;;;;5.13;4.53;;;8.80;99.90;;;;;;5034556;28;20436;-65
2023/10/28 04:39:42;;;;;;;5.80;4.80;;;8.80;99.90;;;;;;5034567;28;20423;-64
2023/10/28 04:42:08;;;;;;;7.70;5.00;;;8.80;99.90;;;;;;5034662;28;20459;-64
2023/10/28 04:44:34;;;;;;;7.27;5.90;;;8.80;99.90;;;;;;5033733;28;20686;-64
2023/10/28 04:47:01;;;;;;;11.23;5.67;;;8.80;99.90;;;;;;5034690;28;20203;-64
2023/10/28 04:49:28;;;;;;;5.70;5.10;;;8.80;99.90;;;;;;5034456;28;20186;-65
2023/10/28 04:51:54;;;;;;;6.90;5.67;;;8.80;99.90;;;;;;5033904;28;20384;-65
2023/10/28 04:54:20;;;;;;;6.20;5.13;;;8.90;99.90;;;;;;5033978;28;20405;-68
2023/10/28 04:56:46;;;;;;;5.17;4.67;;;8.90;99.90;;;;;;5033463;28;20854;-64
2023/10/28 04:59:12;;;;;;;6.20;4.70;;;8.80;99.90;;;;;;5034210;28;20429;-64
2023/10/28 05:01:38;;;;;;;6.23;4.60;;;8.80;99.90;;;;;;5033968;28;20238;-64
2023/10/28 05:04:04;;;;;;;5.90;5.40;;;8.80;99.90;;;;;;5034174;28;20472;-64
2023/10/28 05:06:30;;;;;;;7.77;5.93;;;8.70;99.90;;;;;;5033012;28;20257;-64
2023/10/28 05:08:56;;;;;;;6.47;5.33;;;8.70;99.90;;;;;;5033510;28;20947;-63
2023/10/28 05:11:21;;;;;;;6.73;5.77;;;8.60;99.90;;;;;;5033367;28;20459;-64
2023/10/28 05:13:47;;;;;;;9.70;5.90;;;8.60;99.90;;;;;;5032749;28;20184;-64
2023/10/28 05:16:13;;;;;;;11.03;5.97;;;8.60;99.90;;;;;;5032898;28;20556;-64
2023/10/28 05:18:39;;;;;;;5.90;5.40;;;8.60;99.90;;;;;;5034113;28;20702;-63
2023/10/28 05:21:05;;;;;;;5.23;4.63;;;8.60;99.90;;;;;;5033969;28;20550;-64
2023/10/28 05:23:31;;;;;;;6.30;5.43;;;8.60;99.90;;;;;;5033783;28;20274;-64
2023/10/28 05:25:57;;;;;;;6.17;5.53;;;8.60;99.90;;;;;;5032682;28;20381;-64
2023/10/28 05:28:23;;;;;;;6.27;5.60;;;8.50;99.90;;;;;;5031666;28;20171;-64
2023/10/28 05:30:48;;;;;;;6.40;5.80;;;8.50;99.90;;;;;;5033922;28;20175;-64
2023/10/28 05:33:14;;;;;;;8.37;6.10;;;8.50;99.90;;;;;;5033608;28;20245;-64
2023/10/28 05:35:40;;;;;;;7.00;5.40;;;8.50;99.90;;;;;;5032950;28;20186;-63
2023/10/28 05:38:09;;;;;;;8.13;5.63;;;8.50;99.90;;;;;;5032137;28;20207;-64
2023/10/28 05:40:34;;;;;;;6.00;5.13;;;8.50;99.90;;;;;;5033701;28;20254;-64
2023/10/28 05:43:00;;;;;;;5.10;4.60;;;8.50;99.90;;;;;;5032213;28;20882;-64
2023/10/28 05:45:26;;;;;;;5.40;4.97;;;8.60;99.90;;;;;;5032955;28;20197;-63
2023/10/28 05:47:52;;;;;;;9.13;5.30;;;8.60;99.90;;;;;;5031464;28;20229;-65
2023/10/28 05:50:18;;;;;;;8.50;5.70;;;8.70;99.90;;;;;;5033378;28;20194;-64
2023/10/28 05:52:44;;;;;;;5.63;5.13;;;8.70;99.90;;;;;;5032943;28;20481;-69
2023/10/28 05:55:12;;;;;;;6.00;5.40;;;8.70;99.90;;;;;;5032474;28;20178;-64
2023/10/28 05:57:43;;;;;;;6.37;5.30;;;8.70;99.90;;;;;;5032340;28;20202;-64
2023/10/28 06:00:10;;;;;;;6.57;5.60;;;8.70;99.90;;;;;;5033209;28;20377;-63
2023/10/28 06:02:39;;;;;;;4.97;4.57;;;8.80;99.90;;;;;;5033332;28;20410;-63
2023/10/28 06:05:05;;;;;;;5.33;4.83;;;8.80;99.90;;;;;;5032178;28;20414;-64
2023/10/28 06:07:32;;;;;;;4.57;4.17;;;8.80;99.90;;;;;;5032536;28;20447;-63
2023/10/28 06:09:57;;;;;;;5.30;4.80;;;8.70;99.90;;;;;;5050006;28;20875;-64
2023/10/28 06:12:25;;;;;;;6.20;5.47;;;8.70;99.90;;;;;;5052940;28;20488;-64
2023/10/28 06:14:51;;;;;;;6.23;4.90;;;8.70;99.90;;;;;;5052315;28;20186;-63
2023/10/28 06:17:17;;;;;;;5.40;4.07;;;8.70;99.90;;;;;;5051484;28;20947;-64
2023/10/28 06:19:43;;;;;;;4.23;3.83;;;8.70;99.90;;;;;;5054037;28;20429;-64
2023/10/28 06:22:12;;;;;;;5.80;4.20;;;8.70;99.90;;;;;;5056581;28;20456;-64
2023/10/28 06:24:39;;;;;;;5.30;4.63;;;8.70;99.90;;;;;;5056220;28;20459;-64
2023/10/28 06:27:05;;;;;;;4.27;3.87;;;8.80;99.90;;;;;;5056553;28;20421;-63
2023/10/28 06:29:31;;;;;;;9.70;4.10;;;8.70;99.90;;;;;;5055812;28;20395;-64
2023/10/28 06:32:00;;;;;;;4.87;4.47;;;8.80;99.90;;;;;;5049190;28;20500;-64
2023/10/28 06:34:28;;;;;;;4.10;3.50;;;8.80;99.90;;;;;;5036840;28;20398;-63
2023/10/28 06:36:55;;;;;;;4.43;4.00;;;8.80;99.90;;;;;;5036324;28;20930;-63
2023/10/28 06:39:21;;;;;;;4.80;4.40;;;8.80;99.90;;;;;;5036522;28;20402;-64
2023/10/28 06:41:47;;;;;;;4.60;4.20;;;8.70;99.90;;;;;;5036712;28;20964;-64
2023/10/28 06:44:13;;;;;;;6.77;4.40;;;8.80;99.90;;;;;;5035538;28;20401;-64
2023/10/28 06:46:39;;;;;;;4.27;3.97;;;8.70;99.90;;;;;;5035888;28;20397;-64
2023/10/28 06:49:09;;;;;;;3.80;3.50;;;8.80;99.90;;;;;;5036831;28;20163;-64
2023/10/28 06:51:35;;;;;;;4.07;3.70;;;8.80;99.90;;;;;;5036487;28;20230;-64
2023/10/28 06:54:02;;;;;;;4.60;4.20;;;8.80;99.90;;;;;;5036637;28;20498;-64
2023/10/28 06:56:28;;;;;;;3.60;3.30;;;8.80;99.90;;;;;;5035579;28;20400;-64
2023/10/28 06:58:53;;;;;;;7.90;4.20;;;8.80;99.90;;;;;;5036092;28;20391;-63
2023/10/28 07:01:19;;;;;;;4.30;4.00;;;8.90;99.90;;;;;;5035113;28;20487;-64
2023/10/28 07:03:45;;;;;;;5.53;4.37;;;8.90;99.90;;;;;;5036037;28;20166;-63
2023/10/28 07:06:14;;;;;;;4.97;4.43;;;8.90;99.90;;;;;;5035318;28;20664;-63
2023/10/28 07:08:44;;;;;;;14.50;9.10;;;8.90;99.90;;;;;;5036383;28;20400;-64
2023/10/28 07:11:13;;;;;;;7.67;6.30;;;8.90;99.90;;;;;;5036220;28;20382;-63
2023/10/28 07:13:39;;;;;;;8.10;7.10;;;8.90;99.90;;;;;;5036074;28;20383;-63
2023/10/28 07:16:06;;;;;;;6.63;5.93;;;8.90;99.90;;;;;;5035296;28;20396;-63
2023/10/28 07:18:32;;;;;;;5.90;5.40;;;9.00;99.90;;;;;;5035504;28;20384;-65
2023/10/28 07:20:58;;;;;;;5.33;4.90;;;9.00;99.90;;;;;;5035605;28;20514;-63
2023/10/28 07:23:29;;;;;;;7.70;6.97;;;8.90;99.90;;;;;;5034879;28;20429;-63
2023/10/28 07:25:56;;;;;;;4.73;4.33;;;9.00;99.90;;;;;;5035104;28;20417;-64
2023/10/28 07:28:21;;;;;;;4.20;3.83;;;9.00;99.90;;;;;;5036169;28;20380;-63
2023/10/28 07:30:50;;;;;;;3.83;3.53;;;9.00;99.90;;;;;;5035924;28;20380;-67
2023/10/28 07:33:16;;;;;;;6.93;3.90;;;9.10;99.90;;;;;;5035347;28;20186;-63
2023/10/28 07:35:47;;;;;;;4.10;3.80;;;9.00;99.90;;;;;;5035007;28;20406;-64
2023/10/28 07:38:13;;;;;;;6.70;6.10;;;9.10;99.90;;;;;;5035300;28;20431;-63
2023/10/28 07:40:44;;;;;;;6.90;6.40;;;9.10;99.90;;;;;;5035681;28;20428;-66
2023/10/28 07:43:13;;;;;;;6.87;6.27;;;9.00;99.90;;;;;;5035862;28;20424;-63
2023/10/28 07:45:40;;;;;;;8.03;7.33;;;9.00;99.90;;;;;;5035066;28;20734;-66
2023/10/28 07:48:06;;;;;;;8.60;6.07;;;9.00;99.90;;;;;;5034295;28;20422;-64
2023/10/28 07:50:34;;;;;;;10.27;9.20;;;9.00;99.90;;;;;;5035595;28;20384;-63
2023/10/28 07:52:59;;;;;;;5.40;4.77;;;9.10;99.90;;;;;;5035142;28;20426;-67
2023/10/28 07:55:25;;;;;;;5.17;4.03;;;9.00;99.90;;;;;;5035048;28;20382;-63
2023/10/28 07:57:51;;;;;;;4.37;4.07;;;9.00;99.90;;;;;;5034931;28;20198;-63
2023/10/28 08:00:17;;;;;;;6.33;5.83;;;8.90;99.90;;;;;;5034026;28;20524;-63
2023/10/28 08:02:46;;;;;;;8.40;5.40;;;9.00;99.90;;;;;;5035393;28;20246;-64
2023/10/28 08:05:12;;;;;;;5.13;4.73;;;9.00;99.90;;;;;;5034473;28;20937;-63
2023/10/28 08:07:38;;;;;;;4.20;3.90;;;8.90;99.90;;;;;;5035018;28;20430;-64
2023/10/28 08:10:05;;;;;;;6.33;4.40;;;9.00;99.90;;;;;;5035136;28;20400;-64
2023/10/28 08:12:31;;;;;;;11.27;9.80;;;9.00;99.90;;;;;;5041842;28;20185;-64
2023/10/28 08:14:59;;;;;;;6.93;6.20;;;9.00;99.90;;;;;;5054377;28;20444;-64
2023/10/28 08:17:25;;;;;;;8.53;7.77;;;9.00;99.90;;;;;;5054274;28;20876;-64
2023/10/28 08:19:51;;;;;;;5.40;5.00;;;9.10;99.90;;;;;;5054934;28;20406;-64
2023/10/28 08:22:16;;;;;;;4.30;3.90;;;9.10;99.90;;;;;;5054974;28;20210;-64
2023/10/28 08:24:42;;;;;;;4.30;3.90;;;9.10;99.90;;;;;;5054443;28;20166;-64
2023/10/28 08:27:08;;;;;;;4.80;4.40;;;9.20;99.90;;;;;;5042549;28;20258;-67
2023/10/28 08:29:34;;;;;;;4.30;3.77;;;9.10;99.90;;;;;;5054433;28;20408;-64
2023/10/28 08:32:00;;;;;;;5.53;4.30;;;9.20;99.90;;;;;;5054431;28;20524;-63
2023/10/28 08:34:26;;;;;;;11.93;4.70;;;9.20;99.90;;;;;;5054692;28;20388;-64
2023/10/28 08:36:55;;;;;;;4.57;4.17;;;9.20;99.90;;;;;;5053542;28;20187;-64
2023/10/28 08:39:20;;;;;;;4.20;3.90;;;9.30;99.90;;;;;;5054357;28;20878;-65
2023/10/28 08:41:47;;;;;;;4.17;3.87;;;9.30;99.90;;;;;;5053347;28;20502;-64
2023/10/28 08:44:14;;;;;;;3.60;3.37;;;9.30;99.90;;;;;;5053600;28;20634;-64
2023/10/28 08:46:41;;;;;;;4.50;3.63;;;9.30;99.90;;;;;;5053619;28;20397;-64
2023/10/28 08:49:12;;;;;;;4.33;3.93;;;9.30;99.90;;;;;;5054006;28;20464;-66
2023/10/28 08:51:47;;;;;;;3.97;3.57;;;9.30;99.90;;;;;;5054202;28;20375;-64
2023/10/28 08:54:16;;;;;;;3.93;3.70;;;9.30;99.90;;;;;;5053959;28;20384;-63
2023/10/28 08:56:43;;;;;;;5.07;4.30;;;9.40;99.90;;;;;;5053053;28;20525;-66
2023/10/28 08:59:10;;;;;;;4.63;4.30;;;9.40;99.90;;;;;;5054229;28;20878;-64
2023/10/28 09:01:36;;;;;;;3.60;3.30;;;9.40;99.90;;;;;;5052707;28;20438;-66
2023/10/28 09:04:04;;;;;;;5.23;4.30;;;9.50;99.90;;;;;;5054071;28;20390;-63
2023/10/28 09:06:31;;;;;;;4.17;3.73;;;9.40;99.90;;;;;;5052941;28;20540;-64
2023/10/28 09:09:00;;;;;;;4.43;3.73;;;9.40;99.90;;;;;;5053652;28;20376;-64
2023/10/28 09:11:27;;;;;;;4.00;3.70;;;9.40;99.90;;;;;;5053989;28;20411;-64
2023/10/28 09:13:53;;;;;;;4.70;3.90;;;9.50;99.90;;;;;;5053505;28;20372;-64
2023/10/28 09:16:19;;;;;;;3.93;3.63;;;9.40;99.90;;;;;;5052989;28;20428;-64
2023/10/28 09:18:44;;;;;;;3.73;3.43;;;9.50;99.90;;;;;;5054113;28;20401;-63
2023/10/28 09:21:11;;;;;;;4.50;3.53;;;9.40;99.90;;;;;;5053956;28;20567;-64
2023/10/28 09:23:38;;;;;;;4.13;3.13;;;9.50;99.90;;;;;;5053696;28;20751;-68
2023/10/28 09:26:05;;;;;;;4.03;3.67;;;9.40;99.90;;;;;;5052704;28;20380;-64
2023/10/28 09:28:31;;;;;;;4.23;3.43;;;9.40;99.90;;;;;;5053436;28;20441;-64
2023/10/28 09:30:59;;;;;;;4.73;4.20;;;9.40;99.90;;;;;;5054059;28;20401;-64
2023/10/28 09:33:26;;;;;;;3.70;3.40;;;9.30;99.90;;;;;;5052147;28;20463;-63
2023/10/28 09:35:56;;;;;;;4.17;3.47;;;9.30;99.90;;;;;;5052529;28;20376;-64
2023/10/28 09:38:25;;;;;;;3.53;3.23;;;9.30;99.90;;;;;;5053585;28;20380;-63
2023/10/28 09:40:52;;;;;;;4.23;3.60;;;9.30;99.90;;;;;;5053481;28;20434;-64
2023/10/28 09:43:19;;;;;;;3.60;3.30;;;9.40;99.90;;;;;;5053807;28;20370;-64
2023/10/28 09:45:50;;;;;;;5.77;4.40;;;9.30;99.90;;;;;;5051962;28;20379;-64
2023/10/28 09:48:17;;;;;;;4.00;3.70;;;9.40;99.90;;;;;;5053386;28;20944;-64
2023/10/28 09:50:52;;;;;;;4.00;3.67;;;9.40;99.90;;;;;;5052914;28;20368;-63
2023/10/28 09:53:29;;;;;;;3.83;3.63;;;9.40;99.90;;;;;;5053385;28;20383;-64
2023/10/28 09:55:56;;;;;;;4.30;3.87;;;9.40;99.90;;;;;;5051954;28;20497;-64
2023/10/28 09:58:24;;;;;;;3.77;3.53;;;9.50;99.90;;;;;;5052071;28;20419;-64
2023/10/28 10:00:53;;;;;;;3.70;3.00;;;9.60;99.90;;;;;;5051804;28;20426;-64
2023/10/28 10:03:28;;;;;;;4.03;3.10;;;9.60;99.90;;;;;;5051758;28;20378;-64
2023/10/28 10:05:54;;;;;;;3.20;3.00;;;9.60;99.90;;;;;;5052266;28;20468;-64
2023/10/28 10:08:24;;;;;;;3.13;2.87;;;9.70;99.90;;;;;;5052712;28;20883;-64
2023/10/28 10:10:53;;;;;;;3.20;3.00;;;9.70;99.90;;;;;;5053195;28;20405;-64
2023/10/28 10:13:19;;;;;;;5.10;3.07;;;9.70;99.90;;;;;;5053042;28;20379;-64
2023/10/28 10:16:02;;;;;;;3.23;2.80;;;9.80;99.90;;;;;;5052335;28;20764;-64
2023/10/28 10:18:46;;;;;;;3.50;2.70;;;9.80;99.90;;;;;;5052631;28;20174;-63
2023/10/28 10:21:14;;;;;;;3.20;3.00;;;9.80;99.90;;;;;;5032686;28;20484;-63
2023/10/28 10:23:42;;;;;;;3.17;2.97;;;9.80;99.90;;;;;;5033003;28;20402;-64
2023/10/28 10:26:07;;;;;;;2.97;2.77;;;9.70;99.90;;;;;;5039821;28;20429;-64
2023/10/28 10:28:43;;;;;;;3.73;3.53;;;9.70;99.90;;;;;;5052559;28;20382;-64
2023/10/28 10:31:09;;;;;;;4.43;4.13;;;9.80;99.90;;;;;;5052981;28;20747;-64
2023/10/28 10:33:35;;;;;;;3.77;3.47;;;9.80;99.90;;;;;;5048476;28;20403;-64
2023/10/28 10:36:01;;;;;;;4.73;3.80;;;9.70;99.90;;;;;;5037918;28;20190;-64
2023/10/28 10:38:31;;;;;;;4.40;4.10;;;9.70;99.90;;;;;;5052999;28;20171;-64
2023/10/28 10:41:00;;;;;;;6.70;4.13;;;9.70;99.90;;;;;;5051998;28;20195;-63
2023/10/28 10:43:32;;;;;;;6.40;4.23;;;9.60;99.90;;;;;;5038503;28;20418;-65
2023/10/28 10:45:58;;;;;;;4.40;4.10;;;9.70;99.90;;;;;;5032379;28;20857;-63
2023/10/28 10:48:25;;;;;;;6.20;4.57;;;9.70;99.90;;;;;;5032387;28;20723;-64
2023/10/28 10:50:51;;;;;;;4.63;4.23;;;9.70;99.90;;;;;;5031364;28;20526;-64
2023/10/28 10:53:17;;;;;;;4.87;4.37;;;9.70;99.90;;;;;;5032920;28;20493;-64
2023/10/28 10:55:43;;;;;;;5.17;4.67;;;9.80;99.90;;;;;;5031941;28;20262;-64
2023/10/28 10:58:08;;;;;;;4.30;3.90;;;9.90;99.90;;;;;;5032740;28;20207;-64
2023/10/28 11:00:34;;;;;;;4.20;3.90;;;10.00;99.90;;;;;;5032351;28;20544;-64
2023/10/28 11:03:03;;;;;;;5.20;4.70;;;10.10;99.90;;;;;;5033129;28;20397;-64
2023/10/28 11:05:30;;;;;;;5.23;4.80;;;10.20;99.90;;;;;;5031700;28;20454;-64
2023/10/28 11:07:57;;;;;;;5.40;4.47;;;10.30;99.90;;;;;;5035341;28;20425;-64
2023/10/28 11:10:26;;;;;;;5.17;4.60;;;10.20;99.90;;;;;;5036433;28;20833;-66
2023/10/28 11:12:52;;;;;;;5.27;4.77;;;10.30;99.90;;;;;;5036176;28;20413;-64
2023/10/28 11:15:21;;;;;;;4.43;4.13;;;10.30;91.70;;;;;;5035587;28;20393;-64
2023/10/28 11:17:48;;;;;;;5.30;4.50;;;10.30;80.50;;;;;;5036023;28;20417;-64
2023/10/28 11:20:19;;;;;;;5.97;5.37;;;10.20;55.10;;;;;;5035986;28;20400;-64
2023/10/28 11:22:46;;;;;;;6.60;5.60;;;10.30;46.20;;;;;;5035929;28;20373;-65
2023/10/28 11:25:11;;;;;;;5.37;4.87;;;10.30;32.80;;;;;;5034973;28;20768;-63
2023/10/28 11:27:38;;;;;;;6.20;4.90;;;10.30;32.30;;;;;;5034601;28;20405;-64
2023/10/28 11:30:07;;;;;;;5.57;4.70;;;10.20;32.10;;;;;;5036042;28;20202;-64
2023/10/28 11:32:39;;;;;;;4.97;4.57;;;10.20;32.10;;;;;;5034242;28;20883;-66
2023/10/28 11:35:08;;;;;;;5.53;4.97;;;10.20;32.10;;;;;;5034977;28;20384;-64
2023/10/28 11:37:34;;;;;;;6.57;5.97;;;10.20;32.00;;;;;;5035920;28;20864;-64
2023/10/28 11:40:00;;;;;;;5.23;4.83;;;10.20;25.00;;;;;;5035487;28;20379;-65
2023/10/28 11:42:27;;;;;;;5.37;4.87;;;10.20;24.00;;;;;;5034521;28;20433;-64
2023/10/28 11:44:53;;;;;;;5.37;4.93;;;10.10;17.60;;;;;;5035013;28;20397;-64
2023/10/28 11:47:21;;;;;;;9.23;4.83;;;10.10;15.90;;;;;;5035442;28;20463;-64
2023/10/28 11:49:47;;;;;;;5.30;4.90;;;10.20;16.90;;;;;;5035174;28;20152;-64
2023/10/28 11:52:13;;;;;;;5.73;5.23;;;10.20;12.20;;;;;;5035656;28;20463;-64
2023/10/28 11:54:40;;;;;;;5.87;5.27;;;10.20;9.50;;;;;;5034918;28;20898;-65
2023/10/28 11:57:06;;;;;;;11.13;5.43;;;10.10;1.00;;;;;;5035282;28;20183;-63
2023/10/28 11:59:32;;;;;;;5.80;5.30;;;10.10;1.00;;;;;;5034915;28;20385;-63
2023/10/28 12:01:58;;;;;;;6.50;5.13;;;10.10;1.00;;;;;;5035224;28;20474;-64
2023/10/28 12:04:25;;;;;;;7.77;6.37;;;10.00;1.00;;;;;;5035133;28;20365;-64
2023/10/28 12:06:51;;;;;;;11.83;9.80;;;10.00;1.00;;;;;;5034310;28;20439;-66
2023/10/28 12:09:17;;;;;;;8.87;7.37;;;10.00;1.00;;;;;;5034979;28;20775;-64
2023/10/28 12:11:43;;;;;;;6.60;5.40;;;10.00;1.00;;;;;;5035387;28;20423;-64
2023/10/28 12:14:10;;;;;;;12.50;11.30;;;10.00;1.00;;;;;;5035284;28;20198;-64
2023/10/28 12:16:37;;;;;;;10.33;8.03;;;10.00;1.00;;;;;;5033667;28;20430;-64
2023/10/28 12:19:05;;;;;;;11.30;8.70;;;10.00;1.00;;;;;;5050451;28;20398;-64
2023/10/28 12:21:32;;;;;;;10.80;7.20;;;10.00;1.00;;;;;;5053683;28;21224;-63
2023/10/28 12:23:58;;;;;;;8.00;7.20;;;10.00;1.00;;;;;;5054375;28;20400;-69
2023/10/28 12:26:24;;;;;;;9.07;7.03;;;9.90;1.00;;;;;;5035693;28;20849;-64
2023/10/28 12:28:49;;;;;;;8.30;7.53;;;9.90;2.80;;;;;;5033780;28;20396;-63
2023/10/28 12:31:16;;;;;;;7.07;6.37;;;9.90;9.40;;;;;;5034744;28;20171;-64
2023/10/28 12:33:42;;;;;;;10.93;6.83;;;10.00;18.80;;;;;;5035041;28;20159;-64
2023/10/28 12:36:10;;;;;;;7.67;6.87;;;10.10;32.10;;;;;;5032619;28;20424;-64
2023/10/28 12:38:35;;;;;;;11.97;7.00;;;10.20;32.10;;;;;;5034849;28;20163;-64
2023/10/28 12:41:02;;;;;;;7.27;6.57;;;10.20;32.10;;;;;;5034724;28;20420;-67
2023/10/28 12:43:28;;;;;;;8.50;6.57;;;10.30;32.30;;;;;;5034452;28;20195;-63
2023/10/28 12:45:54;;;;;;;9.73;7.17;;;10.20;30.00;;;;;;5033382;28;20805;-64
2023/10/28 12:48:20;;;;;;;8.60;7.80;;;10.20;20.40;;;;;;5034424;28;20484;-64
2023/10/28 12:50:46;;;;;;;7.83;6.40;;;10.20;13.60;;;;;;5034640;28;20171;-63
2023/10/28 12:53:13;;;;;;;7.30;6.60;;;10.10;9.50;;;;;;5033343;28;20411;-64